sensor_id;sensor_type;location;lat;lon;timestamp;temperature;humidity
77829;DHT22;67019;51.034;3.728;2023-04-15T00:00:25;11.40;84.20
77829;DHT22;67019;51.034;3.728;2023-04-15T00:02:54;11.40;84.50
77829;DHT22;67019;51.034;3.728;2023-04-15T00:05:22;11.50;83.80
77829;DHT22;67019;51.034;3.728;2023-04-15T00:07:51;11.40;83.70
77829;DHT22;67019;51.034;3.728;2023-04-15T00:10:19;11.40;83.10
77829;DHT22;67019;51.034;3.728;2023-04-15T00:12:46;11.40;84.00
77829;DHT22;67019;51.034;3.728;2023-04-15T00:15:14;11.20;84.20
77829;DHT22;67019;51.034;3.728;2023-04-15T00:17:42;11.30;84.50
77829;DHT22;67019;51.034;3.728;2023-04-15T00:20:10;11.30;84.60
77829;DHT22;67019;51.034;3.728;2023-04-15T00:22:39;11.60;82.80
77829;DHT22;67019;51.034;3.728;2023-04-15T00:25:08;11.90;83.20
77829;DHT22;67019;51.034;3.728;2023-04-15T00:27:37;11.60;85.10
77829;DHT22;67019;51.034;3.728;2023-04-15T00:30:06;11.20;86.70
77829;DHT22;67019;51.034;3.728;2023-04-15T00:32:34;11.20;86.30
77829;DHT22;67019;51.034;3.728;2023-04-15T00:35:02;11.20;86.70
77829;DHT22;67019;51.034;3.728;2023-04-15T00:37:29;11.20;86.60
77829;DHT22;67019;51.034;3.728;2023-04-15T00:39:57;11.50;85.20
77829;DHT22;67019;51.034;3.728;2023-04-15T00:42:25;11.50;85.60
77829;DHT22;67019;51.034;3.728;2023-04-15T00:44:52;11.30;86.20
77829;DHT22;67019;51.034;3.728;2023-04-15T00:47:21;11.30;85.90
77829;DHT22;67019;51.034;3.728;2023-04-15T00:49:48;11.20;86.10
77829;DHT22;67019;51.034;3.728;2023-04-15T00:52:16;11.20;87.10
77829;DHT22;67019;51.034;3.728;2023-04-15T00:54:44;11.30;88.80
77829;DHT22;67019;51.034;3.728;2023-04-15T00:57:11;11.20;88.60
77829;DHT22;67019;51.034;3.728;2023-04-15T00:59:39;11.10;89.80
77829;DHT22;67019;51.034;3.728;2023-04-15T01:02:07;11.30;87.00
77829;DHT22;67019;51.034;3.728;2023-04-15T01:04:36;11.00;89.10
77829;DHT22;67019;51.034;3.728;2023-04-15T01:07:04;11.10;89.10
77829;DHT22;67019;51.034;3.728;2023-04-15T01:09:32;10.90;90.30
77829;DHT22;67019;51.034;3.728;2023-04-15T01:12:00;11.00;90.00
77829;DHT22;67019;51.034;3.728;2023-04-15T01:14:28;10.80;90.90
77829;DHT22;67019;51.034;3.728;2023-04-15T01:16:55;11.10;90.50
77829;DHT22;67019;51.034;3.728;2023-04-15T01:19:23;11.10;90.30
77829;DHT22;67019;51.034;3.728;2023-04-15T01:21:51;10.90;90.30
77829;DHT22;67019;51.034;3.728;2023-04-15T01:24:19;10.50;91.30
77829;DHT22;67019;51.034;3.728;2023-04-15T01:26:47;10.50;91.80
77829;DHT22;67019;51.034;3.728;2023-04-15T01:29:15;10.60;92.30
77829;DHT22;67019;51.034;3.728;2023-04-15T01:31:52;10.40;92.30
77829;DHT22;67019;51.034;3.728;2023-04-15T01:34:20;10.00;92.60
77829;DHT22;67019;51.034;3.728;2023-04-15T01:36:50;10.00;93.30
77829;DHT22;67019;51.034;3.728;2023-04-15T01:39:17;10.10;93.40
77829;DHT22;67019;51.034;3.728;2023-04-15T01:41:45;9.90;93.90
77829;DHT22;67019;51.034;3.728;2023-04-15T01:44:12;9.80;94.40
77829;DHT22;67019;51.034;3.728;2023-04-15T01:46:40;9.80;94.70
77829;DHT22;67019;51.034;3.728;2023-04-15T01:49:08;9.60;95.20
77829;DHT22;67019;51.034;3.728;2023-04-15T01:51:35;9.90;95.10
77829;DHT22;67019;51.034;3.728;2023-04-15T01:54:03;9.80;94.80
77829;DHT22;67019;51.034;3.728;2023-04-15T01:56:30;9.70;95.50
77829;DHT22;67019;51.034;3.728;2023-04-15T01:58:58;9.60;95.90
77829;DHT22;67019;51.034;3.728;2023-04-15T02:01:26;9.50;96.30
77829;DHT22;67019;51.034;3.728;2023-04-15T02:03:54;9.60;96.20
77829;DHT22;67019;51.034;3.728;2023-04-15T02:06:22;9.90;95.60
77829;DHT22;67019;51.034;3.728;2023-04-15T02:08:49;10.00;95.00
77829;DHT22;67019;51.034;3.728;2023-04-15T02:11:17;10.00;95.10
77829;DHT22;67019;51.034;3.728;2023-04-15T02:13:45;9.80;95.70
77829;DHT22;67019;51.034;3.728;2023-04-15T02:16:17;9.70;96.00
77829;DHT22;67019;51.034;3.728;2023-04-15T02:18:45;9.70;96.10
77829;DHT22;67019;51.034;3.728;2023-04-15T02:21:13;9.60;95.70
77829;DHT22;67019;51.034;3.728;2023-04-15T02:23:41;9.60;95.50
77829;DHT22;67019;51.034;3.728;2023-04-15T02:26:09;9.50;96.30
77829;DHT22;67019;51.034;3.728;2023-04-15T02:28:37;9.30;96.20
77829;DHT22;67019;51.034;3.728;2023-04-15T02:31:05;9.30;96.30
77829;DHT22;67019;51.034;3.728;2023-04-15T02:33:33;9.30;96.40
77829;DHT22;67019;51.034;3.728;2023-04-15T02:36:02;9.30;96.70
77829;DHT22;67019;51.034;3.728;2023-04-15T02:38:30;9.20;96.90
77829;DHT22;67019;51.034;3.728;2023-04-15T02:40:57;9.10;97.40
77829;DHT22;67019;51.034;3.728;2023-04-15T02:43:25;9.00;97.60
77829;DHT22;67019;51.034;3.728;2023-04-15T02:45:53;8.80;98.30
77829;DHT22;67019;51.034;3.728;2023-04-15T02:48:20;8.80;98.30
77829;DHT22;67019;51.034;3.728;2023-04-15T02:50:48;9.00;98.10
77829;DHT22;67019;51.034;3.728;2023-04-15T02:53:15;9.00;97.80
77829;DHT22;67019;51.034;3.728;2023-04-15T02:55:43;8.90;97.80
77829;DHT22;67019;51.034;3.728;2023-04-15T02:58:11;9.00;97.80
77829;DHT22;67019;51.034;3.728;2023-04-15T03:00:38;9.10;97.70
77829;DHT22;67019;51.034;3.728;2023-04-15T03:03:06;9.00;97.80
77829;DHT22;67019;51.034;3.728;2023-04-15T03:05:34;9.10;98.00
77829;DHT22;67019;51.034;3.728;2023-04-15T03:08:03;9.10;97.80
77829;DHT22;67019;51.034;3.728;2023-04-15T03:10:32;9.10;98.00
77829;DHT22;67019;51.034;3.728;2023-04-15T03:13:00;9.10;98.00
77829;DHT22;67019;51.034;3.728;2023-04-15T03:15:27;9.10;97.90
77829;DHT22;67019;51.034;3.728;2023-04-15T03:17:55;9.20;98.20
77829;DHT22;67019;51.034;3.728;2023-04-15T03:20:22;9.20;97.80
77829;DHT22;67019;51.034;3.728;2023-04-15T03:22:50;9.10;98.20
77829;DHT22;67019;51.034;3.728;2023-04-15T03:25:17;9.30;97.60
77829;DHT22;67019;51.034;3.728;2023-04-15T03:27:45;9.40;97.50
77829;DHT22;67019;51.034;3.728;2023-04-15T03:30:13;9.40;97.50
77829;DHT22;67019;51.034;3.728;2023-04-15T03:32:41;9.20;98.00
77829;DHT22;67019;51.034;3.728;2023-04-15T03:35:09;9.20;98.40
77829;DHT22;67019;51.034;3.728;2023-04-15T03:37:37;9.20;98.70
77829;DHT22;67019;51.034;3.728;2023-04-15T03:40:05;9.10;98.90
77829;DHT22;67019;51.034;3.728;2023-04-15T03:42:33;9.10;99.20
77829;DHT22;67019;51.034;3.728;2023-04-15T03:45:01;9.20;99.20
77829;DHT22;67019;51.034;3.728;2023-04-15T03:47:28;9.20;99.40
77829;DHT22;67019;51.034;3.728;2023-04-15T03:49:58;9.30;99.10
77829;DHT22;67019;51.034;3.728;2023-04-15T03:52:25;9.10;99.40
77829;DHT22;67019;51.034;3.728;2023-04-15T03:54:53;9.10;99.70
77829;DHT22;67019;51.034;3.728;2023-04-15T03:57:21;9.20;99.90
77829;DHT22;67019;51.034;3.728;2023-04-15T03:59:49;9.20;99.80
77829;DHT22;67019;51.034;3.728;2023-04-15T04:02:16;9.20;99.90
77829;DHT22;67019;51.034;3.728;2023-04-15T04:04:44;9.30;99.90
77829;DHT22;67019;51.034;3.728;2023-04-15T04:07:15;9.30;99.90
77829;DHT22;67019;51.034;3.728;2023-04-15T04:09:43;9.10;99.90
77829;DHT22;67019;51.034;3.728;2023-04-15T04:12:11;9.20;99.90
77829;DHT22;67019;51.034;3.728;2023-04-15T04:14:41;9.20;99.90
77829;DHT22;67019;51.034;3.728;2023-04-15T04:17:08;9.20;99.90
77829;DHT22;67019;51.034;3.728;2023-04-15T04:19:36;9.30;99.90
77829;DHT22;67019;51.034;3.728;2023-04-15T04:22:03;9.20;99.50
77829;DHT22;67019;51.034;3.728;2023-04-15T04:24:31;9.30;99.70
77829;DHT22;67019;51.034;3.728;2023-04-15T04:26:58;9.20;99.60
77829;DHT22;67019;51.034;3.728;2023-04-15T04:29:26;9.10;99.70
77829;DHT22;67019;51.034;3.728;2023-04-15T04:31:54;9.20;99.40
77829;DHT22;67019;51.034;3.728;2023-04-15T04:34:23;9.00;99.80
77829;DHT22;67019;51.034;3.728;2023-04-15T04:36:50;8.90;99.90
77829;DHT22;67019;51.034;3.728;2023-04-15T04:39:18;8.90;99.90
77829;DHT22;67019;51.034;3.728;2023-04-15T04:41:46;9.00;99.90
77829;DHT22;67019;51.034;3.728;2023-04-15T04:44:13;9.10;99.90
77829;DHT22;67019;51.034;3.728;2023-04-15T04:46:41;9.20;99.90
77829;DHT22;67019;51.034;3.728;2023-04-15T04:49:09;9.20;99.60
77829;DHT22;67019;51.034;3.728;2023-04-15T04:51:38;9.00;99.80
77829;DHT22;67019;51.034;3.728;2023-04-15T04:54:06;8.90;99.90
77829;DHT22;67019;51.034;3.728;2023-04-15T04:56:34;9.00;99.90
77829;DHT22;67019;51.034;3.728;2023-04-15T04:59:01;9.00;99.90
77829;DHT22;67019;51.034;3.728;2023-04-15T05:01:29;9.00;99.90
77829;DHT22;67019;51.034;3.728;2023-04-15T05:03:56;9.00;99.80
77829;DHT22;67019;51.034;3.728;2023-04-15T05:06:24;9.20;99.80
77829;DHT22;67019;51.034;3.728;2023-04-15T05:08:52;9.20;99.80
77829;DHT22;67019;51.034;3.728;2023-04-15T05:11:19;9.30;99.50
77829;DHT22;67019;51.034;3.728;2023-04-15T05:13:49;9.30;98.90
77829;DHT22;67019;51.034;3.728;2023-04-15T05:16:17;9.30;99.30
77829;DHT22;67019;51.034;3.728;2023-04-15T05:18:46;9.60;98.50
77829;DHT22;67019;51.034;3.728;2023-04-15T05:21:13;9.50;98.30
77829;DHT22;67019;51.034;3.728;2023-04-15T05:23:41;9.60;97.90
77829;DHT22;67019;51.034;3.728;2023-04-15T05:26:09;9.60;97.90
77829;DHT22;67019;51.034;3.728;2023-04-15T05:28:36;9.70;97.10
77829;DHT22;67019;51.034;3.728;2023-04-15T05:31:04;9.60;97.40
77829;DHT22;67019;51.034;3.728;2023-04-15T05:33:32;9.40;97.60
77829;DHT22;67019;51.034;3.728;2023-04-15T05:36:00;9.50;97.80
77829;DHT22;67019;51.034;3.728;2023-04-15T05:38:27;9.40;97.60
77829;DHT22;67019;51.034;3.728;2023-04-15T05:40:55;9.40;97.70
77829;DHT22;67019;51.034;3.728;2023-04-15T05:43:23;9.40;97.70
77829;DHT22;67019;51.034;3.728;2023-04-15T05:45:51;9.50;97.40
77829;DHT22;67019;51.034;3.728;2023-04-15T05:48:18;9.50;96.90
77829;DHT22;67019;51.034;3.728;2023-04-15T05:50:46;9.60;96.70
77829;DHT22;67019;51.034;3.728;2023-04-15T05:53:14;9.90;96.40
77829;DHT22;67019;51.034;3.728;2023-04-15T05:55:43;9.60;96.60
77829;DHT22;67019;51.034;3.728;2023-04-15T05:58:10;9.50;97.00
77829;DHT22;67019;51.034;3.728;2023-04-15T06:00:38;9.50;97.00
77829;DHT22;67019;51.034;3.728;2023-04-15T06:03:06;9.60;97.00
77829;DHT22;67019;51.034;3.728;2023-04-15T06:05:33;9.60;97.40
77829;DHT22;67019;51.034;3.728;2023-04-15T06:08:01;9.70;97.00
77829;DHT22;67019;51.034;3.728;2023-04-15T06:10:29;9.60;97.30
77829;DHT22;67019;51.034;3.728;2023-04-15T06:12:58;9.70;97.60
77829;DHT22;67019;51.034;3.728;2023-04-15T06:15:26;9.70;97.50
77829;DHT22;67019;51.034;3.728;2023-04-15T06:17:55;9.90;97.50
77829;DHT22;67019;51.034;3.728;2023-04-15T06:20:22;10.00;97.20
77829;DHT22;67019;51.034;3.728;2023-04-15T06:22:51;10.10;96.60
77829;DHT22;67019;51.034;3.728;2023-04-15T06:25:18;10.20;96.40
77829;DHT22;67019;51.034;3.728;2023-04-15T06:27:46;9.80;97.20
77829;DHT22;67019;51.034;3.728;2023-04-15T06:30:14;9.80;97.30
77829;DHT22;67019;51.034;3.728;2023-04-15T06:32:42;10.40;95.90
77829;DHT22;67019;51.034;3.728;2023-04-15T06:35:09;10.60;95.20
77829;DHT22;67019;51.034;3.728;2023-04-15T06:37:37;10.50;95.20
77829;DHT22;67019;51.034;3.728;2023-04-15T06:40:05;10.60;93.70
77829;DHT22;67019;51.034;3.728;2023-04-15T06:42:34;10.70;94.10
77829;DHT22;67019;51.034;3.728;2023-04-15T06:45:04;10.80;94.50
77829;DHT22;67019;51.034;3.728;2023-04-15T06:47:32;10.80;95.00
77829;DHT22;67019;51.034;3.728;2023-04-15T06:49:59;10.90;94.40
77829;DHT22;67019;51.034;3.728;2023-04-15T06:52:27;11.00;94.10
77829;DHT22;67019;51.034;3.728;2023-04-15T06:54:55;11.20;94.00
77829;DHT22;67019;51.034;3.728;2023-04-15T06:57:24;11.30;93.60
77829;DHT22;67019;51.034;3.728;2023-04-15T06:59:52;11.10;93.50
77829;DHT22;67019;51.034;3.728;2023-04-15T07:02:20;11.00;94.10
77829;DHT22;67019;51.034;3.728;2023-04-15T07:04:47;11.10;93.70
77829;DHT22;67019;51.034;3.728;2023-04-15T07:07:15;11.10;93.50
77829;DHT22;67019;51.034;3.728;2023-04-15T07:09:43;11.30;93.60
77829;DHT22;67019;51.034;3.728;2023-04-15T07:12:10;11.70;92.20
77829;DHT22;67019;51.034;3.728;2023-04-15T07:14:38;11.80;92.10
77829;DHT22;67019;51.034;3.728;2023-04-15T07:17:06;11.80;91.30
77829;DHT22;67019;51.034;3.728;2023-04-15T07:19:34;11.80;90.70
77829;DHT22;67019;51.034;3.728;2023-04-15T07:22:01;11.90;90.90
77829;DHT22;67019;51.034;3.728;2023-04-15T07:24:29;11.80;91.00
77829;DHT22;67019;51.034;3.728;2023-04-15T07:26:57;12.00;90.30
77829;DHT22;67019;51.034;3.728;2023-04-15T07:29:25;12.10;90.10
77829;DHT22;67019;51.034;3.728;2023-04-15T07:31:52;12.20;90.00
77829;DHT22;67019;51.034;3.728;2023-04-15T07:34:22;12.40;90.00
77829;DHT22;67019;51.034;3.728;2023-04-15T07:36:50;12.70;90.30
77829;DHT22;67019;51.034;3.728;2023-04-15T07:39:17;12.40;89.90
77829;DHT22;67019;51.034;3.728;2023-04-15T07:41:45;12.50;90.10
77829;DHT22;67019;51.034;3.728;2023-04-15T07:44:14;12.40;89.60
77829;DHT22;67019;51.034;3.728;2023-04-15T07:46:41;12.20;89.00
77829;DHT22;67019;51.034;3.728;2023-04-15T07:49:09;12.10;89.80
77829;DHT22;67019;51.034;3.728;2023-04-15T07:51:36;12.10;87.70
77829;DHT22;67019;51.034;3.728;2023-04-15T07:54:04;11.90;85.50
77829;DHT22;67019;51.034;3.728;2023-04-15T07:56:32;11.70;86.60
77829;DHT22;67019;51.034;3.728;2023-04-15T07:58:59;11.70;88.10
77829;DHT22;67019;51.034;3.728;2023-04-15T08:01:29;11.90;87.50
77829;DHT22;67019;51.034;3.728;2023-04-15T08:03:57;11.70;87.80
77829;DHT22;67019;51.034;3.728;2023-04-15T08:06:27;11.90;87.40
77829;DHT22;67019;51.034;3.728;2023-04-15T08:08:55;11.50;90.00
77829;DHT22;67019;51.034;3.728;2023-04-15T08:11:23;11.80;90.30
77829;DHT22;67019;51.034;3.728;2023-04-15T08:13:51;12.20;87.00
77829;DHT22;67019;51.034;3.728;2023-04-15T08:19:05;12.40;83.30
77829;DHT22;67019;51.034;3.728;2023-04-15T08:21:33;12.50;83.70
77829;DHT22;67019;51.034;3.728;2023-04-15T08:24:01;12.60;85.40
77829;DHT22;67019;51.034;3.728;2023-04-15T08:26:28;12.80;83.10
77829;DHT22;67019;51.034;3.728;2023-04-15T08:28:56;12.90;81.90
77829;DHT22;67019;51.034;3.728;2023-04-15T08:31:26;13.10;81.50
77829;DHT22;67019;51.034;3.728;2023-04-15T08:33:56;13.10;81.00
77829;DHT22;67019;51.034;3.728;2023-04-15T08:36:24;13.40;80.60
77829;DHT22;67019;51.034;3.728;2023-04-15T08:38:52;13.70;79.10
77829;DHT22;67019;51.034;3.728;2023-04-15T08:41:21;13.70;79.70
77829;DHT22;67019;51.034;3.728;2023-04-15T08:43:51;13.90;77.00
77829;DHT22;67019;51.034;3.728;2023-04-15T08:46:20;13.60;78.50
77829;DHT22;67019;51.034;3.728;2023-04-15T08:48:48;13.40;76.90
77829;DHT22;67019;51.034;3.728;2023-04-15T08:51:17;13.50;77.20
77829;DHT22;67019;51.034;3.728;2023-04-15T08:53:46;13.60;77.20
77829;DHT22;67019;51.034;3.728;2023-04-15T08:56:15;13.60;74.70
77829;DHT22;67019;51.034;3.728;2023-04-15T08:58:46;13.60;75.30
77829;DHT22;67019;51.034;3.728;2023-04-15T09:01:14;13.60;75.20
77829;DHT22;67019;51.034;3.728;2023-04-15T09:03:43;13.50;77.30
77829;DHT22;67019;51.034;3.728;2023-04-15T09:06:12;13.40;76.90
77829;DHT22;67019;51.034;3.728;2023-04-15T09:08:40;13.60;77.70
77829;DHT22;67019;51.034;3.728;2023-04-15T09:11:07;13.50;75.80
77829;DHT22;67019;51.034;3.728;2023-04-15T09:13:35;13.80;74.60
77829;DHT22;67019;51.034;3.728;2023-04-15T09:16:05;14.10;73.70
77829;DHT22;67019;51.034;3.728;2023-04-15T09:18:38;14.30;73.00
77829;DHT22;67019;51.034;3.728;2023-04-15T09:21:05;14.20;73.10
77829;DHT22;67019;51.034;3.728;2023-04-15T09:23:34;13.00;72.90
77829;DHT22;67019;51.034;3.728;2023-04-15T09:26:04;14.60;71.60
77829;DHT22;67019;51.034;3.728;2023-04-15T09:28:33;14.50;72.40
77829;DHT22;67019;51.034;3.728;2023-04-15T09:31:01;14.30;73.30
77829;DHT22;67019;51.034;3.728;2023-04-15T09:33:29;14.60;73.70
77829;DHT22;67019;51.034;3.728;2023-04-15T09:36:01;15.00;72.40
77829;DHT22;67019;51.034;3.728;2023-04-15T09:38:30;14.80;74.50
77829;DHT22;67019;51.034;3.728;2023-04-15T09:40:58;14.90;71.50
77829;DHT22;67019;51.034;3.728;2023-04-15T09:43:39;14.90;72.60
77829;DHT22;67019;51.034;3.728;2023-04-15T09:46:06;14.80;73.50
77829;DHT22;67019;51.034;3.728;2023-04-15T09:48:34;14.80;73.10
77829;DHT22;67019;51.034;3.728;2023-04-15T09:51:02;14.80;73.20
77829;DHT22;67019;51.034;3.728;2023-04-15T09:53:33;15.00;72.90
77829;DHT22;67019;51.034;3.728;2023-04-15T09:56:00;15.20;71.10
77829;DHT22;67019;51.034;3.728;2023-04-15T09:58:30;15.00;71.20
77829;DHT22;67019;51.034;3.728;2023-04-15T10:01:01;14.90;73.50
77829;DHT22;67019;51.034;3.728;2023-04-15T10:03:33;14.80;72.90
77829;DHT22;67019;51.034;3.728;2023-04-15T10:06:03;14.70;74.70
77829;DHT22;67019;51.034;3.728;2023-04-15T10:08:32;14.50;74.50
77829;DHT22;67019;51.034;3.728;2023-04-15T10:11:01;14.40;75.80
77829;DHT22;67019;51.034;3.728;2023-04-15T10:13:31;14.20;76.20
77829;DHT22;67019;51.034;3.728;2023-04-15T10:16:13;13.90;77.60
77829;DHT22;67019;51.034;3.728;2023-04-15T10:18:34;12.60;78.10
77829;DHT22;67019;51.034;3.728;2023-04-15T10:21:03;13.90;79.20
77829;DHT22;67019;51.034;3.728;2023-04-15T10:23:32;14.10;78.90
77829;DHT22;67019;51.034;3.728;2023-04-15T10:26:02;14.40;77.70
77829;DHT22;67019;51.034;3.728;2023-04-15T10:28:29;14.40;76.10
77829;DHT22;67019;51.034;3.728;2023-04-15T10:30:57;14.70;76.10
77829;DHT22;67019;51.034;3.728;2023-04-15T10:33:25;14.90;75.10
77829;DHT22;67019;51.034;3.728;2023-04-15T10:35:55;14.90;74.60
77829;DHT22;67019;51.034;3.728;2023-04-15T10:38:42;15.00;72.90
77829;DHT22;67019;51.034;3.728;2023-04-15T10:41:21;15.00;73.00
77829;DHT22;67019;51.034;3.728;2023-04-15T10:43:51;15.00;70.90
77829;DHT22;67019;51.034;3.728;2023-04-15T10:46:22;15.00;70.90
77829;DHT22;67019;51.034;3.728;2023-04-15T10:48:52;15.10;67.80
77829;DHT22;67019;51.034;3.728;2023-04-15T10:51:30;15.10;66.90
77829;DHT22;67019;51.034;3.728;2023-04-15T10:53:59;14.80;67.20
77829;DHT22;67019;51.034;3.728;2023-04-15T10:56:29;15.10;66.30
77829;DHT22;67019;51.034;3.728;2023-04-15T10:58:59;15.10;64.60
77829;DHT22;67019;51.034;3.728;2023-04-15T11:01:49;15.30;63.10
77829;DHT22;67019;51.034;3.728;2023-04-15T11:07:07;15.50;62.60
77829;DHT22;67019;51.034;3.728;2023-04-15T11:09:34;15.60;62.20
77829;DHT22;67019;51.034;3.728;2023-04-15T11:12:08;15.70;62.20
77829;DHT22;67019;51.034;3.728;2023-04-15T11:14:40;15.70;60.90
77829;DHT22;67019;51.034;3.728;2023-04-15T11:17:09;15.80;60.30
77829;DHT22;67019;51.034;3.728;2023-04-15T11:19:37;15.80;58.10
77829;DHT22;67019;51.034;3.728;2023-04-15T11:22:10;15.60;57.20
77829;DHT22;67019;51.034;3.728;2023-04-15T11:24:48;15.60;53.50
77829;DHT22;67019;51.034;3.728;2023-04-15T11:27:22;15.60;54.30
77829;DHT22;67019;51.034;3.728;2023-04-15T11:29:50;15.50;55.00
77829;DHT22;67019;51.034;3.728;2023-04-15T11:32:18;15.60;56.40
77829;DHT22;67019;51.034;3.728;2023-04-15T11:34:47;15.70;55.40
77829;DHT22;67019;51.034;3.728;2023-04-15T11:37:17;15.80;55.20
77829;DHT22;67019;51.034;3.728;2023-04-15T11:39:44;15.60;55.10
77829;DHT22;67019;51.034;3.728;2023-04-15T11:42:18;15.60;52.80
77829;DHT22;67019;51.034;3.728;2023-04-15T11:44:45;15.50;51.40
77829;DHT22;67019;51.034;3.728;2023-04-15T11:47:25;15.50;51.80
77829;DHT22;67019;51.034;3.728;2023-04-15T11:49:49;15.70;50.40
77829;DHT22;67019;51.034;3.728;2023-04-15T11:52:17;15.80;49.00
77829;DHT22;67019;51.034;3.728;2023-04-15T11:54:45;15.90;49.10
77829;DHT22;67019;51.034;3.728;2023-04-15T11:57:13;15.70;45.80
77829;DHT22;67019;51.034;3.728;2023-04-15T11:59:43;15.70;47.00
77829;DHT22;67019;51.034;3.728;2023-04-15T12:02:12;15.50;44.30
77829;DHT22;67019;51.034;3.728;2023-04-15T12:04:40;15.40;47.70
77829;DHT22;67019;51.034;3.728;2023-04-15T12:07:08;15.30;49.70
77829;DHT22;67019;51.034;3.728;2023-04-15T12:09:39;15.40;51.60
77829;DHT22;67019;51.034;3.728;2023-04-15T12:12:06;15.60;47.80
77829;DHT22;67019;51.034;3.728;2023-04-15T12:14:33;15.50;47.70
77829;DHT22;67019;51.034;3.728;2023-04-15T12:17:04;15.50;45.60
77829;DHT22;67019;51.034;3.728;2023-04-15T12:22:07;15.50;49.40
77829;DHT22;67019;51.034;3.728;2023-04-15T12:24:35;15.60;46.90
77829;DHT22;67019;51.034;3.728;2023-04-15T12:27:05;15.70;48.30
77829;DHT22;67019;51.034;3.728;2023-04-15T12:29:34;15.50;50.40
77829;DHT22;67019;51.034;3.728;2023-04-15T12:32:07;15.80;51.30
77829;DHT22;67019;51.034;3.728;2023-04-15T12:34:39;16.00;49.20
77829;DHT22;67019;51.034;3.728;2023-04-15T12:37:10;15.90;48.80
77829;DHT22;67019;51.034;3.728;2023-04-15T12:39:40;15.90;49.20
77829;DHT22;67019;51.034;3.728;2023-04-15T12:42:09;15.80;49.60
77829;DHT22;67019;51.034;3.728;2023-04-15T12:44:37;15.80;49.10
77829;DHT22;67019;51.034;3.728;2023-04-15T12:47:06;15.90;49.10
77829;DHT22;67019;51.034;3.728;2023-04-15T12:49:34;16.00;50.50
77829;DHT22;67019;51.034;3.728;2023-04-15T12:52:03;15.90;49.20
77829;DHT22;67019;51.034;3.728;2023-04-15T12:54:31;15.90;50.20
77829;DHT22;67019;51.034;3.728;2023-04-15T12:56:59;15.80;48.30
77829;DHT22;67019;51.034;3.728;2023-04-15T12:59:28;15.90;48.20
77829;DHT22;67019;51.034;3.728;2023-04-15T13:01:56;15.80;49.30
77829;DHT22;67019;51.034;3.728;2023-04-15T13:04:25;15.70;49.20
77829;DHT22;67019;51.034;3.728;2023-04-15T13:06:54;15.60;51.10
77829;DHT22;67019;51.034;3.728;2023-04-15T13:09:22;15.60;51.00
77829;DHT22;67019;51.034;3.728;2023-04-15T13:11:50;15.90;51.20
77829;DHT22;67019;51.034;3.728;2023-04-15T13:14:18;15.90;49.20
77829;DHT22;67019;51.034;3.728;2023-04-15T13:16:45;15.90;47.00
77829;DHT22;67019;51.034;3.728;2023-04-15T13:19:13;15.80;47.80
77829;DHT22;67019;51.034;3.728;2023-04-15T13:21:41;15.80;47.60
77829;DHT22;67019;51.034;3.728;2023-04-15T13:24:08;15.90;48.10
77829;DHT22;67019;51.034;3.728;2023-04-15T13:26:36;16.10;48.10
77829;DHT22;67019;51.034;3.728;2023-04-15T13:29:04;16.00;47.80
77829;DHT22;67019;51.034;3.728;2023-04-15T13:31:32;16.00;49.30
77829;DHT22;67019;51.034;3.728;2023-04-15T13:33:59;16.10;49.30
77829;DHT22;67019;51.034;3.728;2023-04-15T13:36:27;16.10;50.30
77829;DHT22;67019;51.034;3.728;2023-04-15T13:38:54;16.00;49.90
77829;DHT22;67019;51.034;3.728;2023-04-15T13:41:23;16.00;50.10
77829;DHT22;67019;51.034;3.728;2023-04-15T13:43:50;16.10;48.60
77829;DHT22;67019;51.034;3.728;2023-04-15T13:46:18;16.10;47.70
77829;DHT22;67019;51.034;3.728;2023-04-15T13:48:45;16.10;50.00
77829;DHT22;67019;51.034;3.728;2023-04-15T13:51:13;16.20;53.00
77829;DHT22;67019;51.034;3.728;2023-04-15T13:53:41;16.20;55.60
77829;DHT22;67019;51.034;3.728;2023-04-15T13:56:10;15.90;57.20
77829;DHT22;67019;51.034;3.728;2023-04-15T13:58:38;15.80;61.40
77829;DHT22;67019;51.034;3.728;2023-04-15T14:01:06;15.90;62.60
77829;DHT22;67019;51.034;3.728;2023-04-15T14:03:34;15.90;61.20
77829;DHT22;67019;51.034;3.728;2023-04-15T14:06:03;16.20;62.70
77829;DHT22;67019;51.034;3.728;2023-04-15T14:08:30;17.10;58.30
77829;DHT22;67019;51.034;3.728;2023-04-15T14:10:58;17.20;57.30
77829;DHT22;67019;51.034;3.728;2023-04-15T14:13:25;17.50;56.80
77829;DHT22;67019;51.034;3.728;2023-04-15T14:15:53;17.80;55.40
77829;DHT22;67019;51.034;3.728;2023-04-15T14:18:21;17.80;54.90
77829;DHT22;67019;51.034;3.728;2023-04-15T14:20:48;18.20;54.30
77829;DHT22;67019;51.034;3.728;2023-04-15T14:23:16;18.40;54.70
77829;DHT22;67019;51.034;3.728;2023-04-15T14:25:43;18.20;54.20
77829;DHT22;67019;51.034;3.728;2023-04-15T14:28:11;18.40;54.30
77829;DHT22;67019;51.034;3.728;2023-04-15T14:30:39;18.70;54.60
77829;DHT22;67019;51.034;3.728;2023-04-15T14:33:06;18.90;53.90
77829;DHT22;67019;51.034;3.728;2023-04-15T14:35:34;19.20;53.80
77829;DHT22;67019;51.034;3.728;2023-04-15T14:38:02;19.30;52.90
77829;DHT22;67019;51.034;3.728;2023-04-15T14:40:32;19.40;51.00
77829;DHT22;67019;51.034;3.728;2023-04-15T14:43:00;18.80;49.80
77829;DHT22;67019;51.034;3.728;2023-04-15T14:45:28;18.70;50.60
77829;DHT22;67019;51.034;3.728;2023-04-15T14:47:56;19.10;48.20
77829;DHT22;67019;51.034;3.728;2023-04-15T14:50:24;19.00;50.30
77829;DHT22;67019;51.034;3.728;2023-04-15T14:52:51;19.20;49.90
77829;DHT22;67019;51.034;3.728;2023-04-15T14:55:19;19.50;47.40
77829;DHT22;67019;51.034;3.728;2023-04-15T14:57:46;20.50;45.20
77829;DHT22;67019;51.034;3.728;2023-04-15T15:00:14;20.30;44.30
77829;DHT22;67019;51.034;3.728;2023-04-15T15:02:42;19.50;45.00
77829;DHT22;67019;51.034;3.728;2023-04-15T15:05:10;19.00;44.30
77829;DHT22;67019;51.034;3.728;2023-04-15T15:07:38;18.90;43.10
77829;DHT22;67019;51.034;3.728;2023-04-15T15:10:07;19.60;42.70
77829;DHT22;67019;51.034;3.728;2023-04-15T15:12:35;19.90;44.20
77829;DHT22;67019;51.034;3.728;2023-04-15T15:15:03;19.50;42.20
77829;DHT22;67019;51.034;3.728;2023-04-15T15:17:31;19.80;41.90
77829;DHT22;67019;51.034;3.728;2023-04-15T15:19:59;20.20;41.10
77829;DHT22;67019;51.034;3.728;2023-04-15T15:22:26;19.50;40.60
77829;DHT22;67019;51.034;3.728;2023-04-15T15:24:54;19.20;41.00
77829;DHT22;67019;51.034;3.728;2023-04-15T15:27:23;19.00;40.70
77829;DHT22;67019;51.034;3.728;2023-04-15T15:29:51;19.20;41.80
77829;DHT22;67019;51.034;3.728;2023-04-15T15:32:18;19.00;43.40
77829;DHT22;67019;51.034;3.728;2023-04-15T15:34:46;19.00;42.90
77829;DHT22;67019;51.034;3.728;2023-04-15T15:37:13;19.30;42.90
77829;DHT22;67019;51.034;3.728;2023-04-15T15:39:41;19.20;43.80
77829;DHT22;67019;51.034;3.728;2023-04-15T15:42:09;19.80;43.10
77829;DHT22;67019;51.034;3.728;2023-04-15T15:44:36;19.60;42.80
77829;DHT22;67019;51.034;3.728;2023-04-15T15:47:04;19.00;43.60
77829;DHT22;67019;51.034;3.728;2023-04-15T15:49:32;18.70;45.60